Time;durP1;ratioP1;P1;durP2;ratioP2;P2;SDS_P1;SDS_P2;PMS_P1;PMS_P2;Temp;Humidity;BMP_temperature;BMP_pressure;BME280_temperature;BME280_humidity;BME280_pressure;Samples;Min_cycle;Max_cycle;Signal;HPM_P1;HPM_P2
2021/10/06 00:00:22;;;;;;;1999.90;999.90;;;;;;;10.57;54.75;100456.16;5025167;27;97956;-72
2021/10/06 00:02:51;;;;;;;1999.90;999.90;;;;;;;10.56;55.20;100456.09;5018679;27;97818;-71
2021/10/06 00:05:19;;;;;;;1999.90;999.90;;;;;;;10.58;54.85;100457.03;5004079;28;101301;-72
2021/10/06 00:07:47;;;;;;;1999.90;999.90;;;;;;;10.57;54.78;100455.25;5005028;27;97321;-72
2021/10/06 00:10:15;;;;;;;1999.90;999.90;;;;;;;10.57;54.92;100455.25;5022307;27;97753;-72
2021/10/06 00:12:43;;;;;;;1999.90;999.90;;;;;;;10.59;55.08;100459.75;5020326;27;97719;-71
2021/10/06 00:15:12;;;;;;;1999.90;999.90;;;;;;;10.59;55.15;100464.16;5021421;27;98368;-72
2021/10/06 00:17:41;;;;;;;1999.90;999.90;;;;;;;10.58;55.15;100462.34;5022699;27;97765;-72
2021/10/06 00:20:12;;;;;;;1999.90;999.90;;;;;;;10.57;55.16;100464.13;5022877;27;97138;-71
2021/10/06 00:22:40;;;;;;;1999.90;999.90;;;;;;;10.57;55.18;100480.09;4999961;28;98094;-71
2021/10/06 00:25:08;;;;;;;1999.90;999.90;;;;;;;10.60;55.23;100484.56;5022151;27;99454;-72
2021/10/06 00:27:36;;;;;;;1999.90;999.90;;;;;;;10.58;55.40;100481.88;5021120;27;97038;-72
2021/10/06 00:30:05;;;;;;;1999.90;999.90;;;;;;;10.59;55.19;100480.13;5005253;27;97401;-72
2021/10/06 00:32:33;;;;;;;1999.90;999.90;;;;;;;10.60;54.98;100495.19;5020279;27;98748;-71
2021/10/06 00:35:00;;;;;;;1999.90;999.90;;;;;;;10.61;55.26;100499.69;5022851;27;98187;-72
2021/10/06 00:37:30;;;;;;;1999.90;999.90;;;;;;;10.59;55.04;100499.66;5023275;27;96816;-72
2021/10/06 00:39:57;;;;;;;1999.90;999.90;;;;;;;10.60;55.17;100508.50;5005589;27;96842;-71
2021/10/06 00:42:25;;;;;;;1999.90;999.90;;;;;;;10.59;55.01;100512.06;5018982;27;99447;-73
2021/10/06 00:44:53;;;;;;;1999.90;999.90;;;;;;;10.60;55.34;100513.81;5020026;27;98035;-72
2021/10/06 00:47:21;;;;;;;1999.90;999.90;;;;;;;10.57;55.18;100508.47;5019823;27;97236;-72
2021/10/06 00:49:49;;;;;;;1999.90;999.90;;;;;;;10.53;55.09;100512.84;5021407;27;97511;-73
2021/10/06 00:52:17;;;;;;;1999.90;999.90;;;;;;;10.50;55.01;100518.13;5019019;27;97658;-72
2021/10/06 00:54:46;;;;;;;1999.90;999.90;;;;;;;10.50;55.14;100519.88;5020130;28;99657;-71
2021/10/06 00:57:14;;;;;;;1999.90;999.90;;;;;;;10.45;55.07;100525.09;5018846;27;98280;-72
2021/10/06 00:59:43;;;;;;;1999.90;999.90;;;;;;;10.45;55.42;100524.22;5023500;27;97523;-72
2021/10/06 01:02:10;;;;;;;1999.90;999.90;;;;;;;10.46;55.24;100532.22;5018805;27;97688;-73
2021/10/06 01:04:39;;;;;;;1999.90;999.90;;;;;;;10.47;55.51;100539.34;5019559;27;100197;-72
2021/10/06 01:07:06;;;;;;;1999.90;999.90;;;;;;;10.47;55.33;100546.41;5019692;27;97347;-72
2021/10/06 01:09:34;;;;;;;1999.90;999.90;;;;;;;10.46;55.23;100547.28;5011636;28;97128;-71
2021/10/06 01:12:04;;;;;;;1999.90;999.90;;;;;;;10.45;55.30;100550.84;5019692;27;99005;-72
2021/10/06 01:14:32;;;;;;;1999.90;999.90;;;;;;;10.45;55.27;100549.03;5019446;27;98032;-71
2021/10/06 01:17:00;;;;;;;1999.90;999.90;;;;;;;10.46;55.28;100557.94;5020836;27;97887;-72
2021/10/06 01:19:30;;;;;;;1999.90;999.90;;;;;;;10.49;55.16;100560.63;5020327;27;98298;-72
2021/10/06 01:22:00;;;;;;;1999.90;999.90;;;;;;;10.51;54.96;100561.56;5021456;27;97051;-72
2021/10/06 01:24:29;;;;;;;1999.90;999.90;;;;;;;10.51;55.12;100566.88;5018770;27;99648;-71
2021/10/06 01:26:57;;;;;;;1999.90;999.90;;;;;;;10.53;54.76;100565.16;5004733;27;97592;-71
2021/10/06 01:29:25;;;;;;;1999.90;999.90;;;;;;;10.54;54.71;100572.28;5005448;27;99322;-72
2021/10/06 01:31:53;;;;;;;1999.90;999.90;;;;;;;10.52;54.45;100580.22;5021483;27;100722;-73
2021/10/06 01:34:22;;;;;;;1999.90;999.90;;;;;;;10.53;54.35;100581.09;5016474;27;97571;-72
2021/10/06 01:36:53;;;;;;;1999.90;999.90;;;;;;;10.54;54.25;100581.13;5021576;27;97542;-71
2021/10/06 01:39:22;;;;;;;1999.90;999.90;;;;;;;10.56;54.19;100591.78;5021396;27;96967;-71
2021/10/06 01:41:50;;;;;;;1999.90;999.90;;;;;;;10.59;54.06;100591.88;5020059;27;98434;-71
2021/10/06 01:44:19;;;;;;;1999.90;999.90;;;;;;;10.61;54.00;100595.47;5018159;27;98132;-72
2021/10/06 01:46:48;;;;;;;1999.90;999.90;;;;;;;10.63;53.91;100593.72;5018197;27;97158;-71
2021/10/06 01:49:16;;;;;;;1999.90;999.90;;;;;;;10.61;53.81;100604.31;5003346;28;97077;-72
2021/10/06 01:51:44;;;;;;;1999.90;999.90;;;;;;;10.61;53.73;100603.44;5018637;27;99441;-71
2021/10/06 01:54:12;;;;;;;1999.90;999.90;;;;;;;10.59;53.58;100602.50;5020489;27;98697;-72
2021/10/06 01:56:41;;;;;;;1999.90;999.90;;;;;;;10.58;53.48;100595.38;5023612;27;97634;-72
2021/10/06 01:59:08;;;;;;;1999.90;999.90;;;;;;;10.56;53.53;100597.13;5020860;27;97628;-73
2021/10/06 02:01:36;;;;;;;1999.90;999.90;;;;;;;10.54;53.37;100598.88;5012459;28;99353;-71
2021/10/06 02:04:04;;;;;;;1999.90;999.90;;;;;;;10.51;53.10;100598.81;5000237;28;98623;-71
2021/10/06 02:06:33;;;;;;;1999.90;999.90;;;;;;;10.47;52.86;100603.19;5000619;28;97764;-71
2021/10/06 02:09:01;;;;;;;1999.90;999.90;;;;;;;10.45;52.83;100609.34;5018792;27;97201;-72
2021/10/06 02:11:29;;;;;;;1999.90;999.90;;;;;;;10.42;52.92;100606.63;5016644;27;97007;-72
2021/10/06 02:13:58;;;;;;;1999.90;999.90;;;;;;;10.43;52.97;100603.09;5003646;28;100371;-72
2021/10/06 02:16:26;;;;;;;1999.90;999.90;;;;;;;10.44;52.74;100612.88;5019232;27;97463;-72
2021/10/06 02:18:54;;;;;;;1999.90;999.90;;;;;;;10.44;52.66;100611.13;5003886;28;97648;-71
2021/10/06 02:21:33;;;;;;;1999.90;999.90;;;;;;;10.45;52.48;100604.03;5015877;27;98160;-72
2021/10/06 02:24:01;;;;;;;1999.90;999.90;;;;;;;10.46;52.43;100605.81;5019580;27;98810;-71
2021/10/06 02:26:29;;;;;;;1999.90;999.90;;;;;;;10.48;52.58;100612.97;5018482;28;96756;-72
2021/10/06 02:28:58;;;;;;;1999.90;999.90;;;;;;;10.47;52.47;100612.91;5020766;27;97169;-72
2021/10/06 02:31:26;;;;;;;1999.90;999.90;;;;;;;10.48;52.45;100615.63;5020152;27;99976;-71
2021/10/06 02:33:54;;;;;;;1999.90;999.90;;;;;;;10.48;52.40;100628.03;5017636;27;97591;-71
2021/10/06 02:36:21;;;;;;;1999.90;999.90;;;;;;;10.47;52.31;100629.78;5002507;28;98458;-71
2021/10/06 02:38:49;;;;;;;1999.90;999.90;;;;;;;10.46;52.35;100627.09;5015481;27;97216;-72
2021/10/06 02:41:17;;;;;;;1999.90;999.90;;;;;;;10.44;52.38;100626.16;5019462;27;99469;-72
2021/10/06 02:43:45;;;;;;;1999.90;999.90;;;;;;;10.41;52.35;100634.97;5016395;27;99347;-72
2021/10/06 02:46:14;;;;;;;1999.90;999.90;;;;;;;10.37;52.26;100642.84;5018685;27;97716;-72
2021/10/06 02:48:42;;;;;;;1999.90;999.90;;;;;;;10.29;52.32;100633.81;5020249;28;97705;-72
2021/10/06 02:51:09;;;;;;;1999.90;999.90;;;;;;;10.25;52.52;100637.28;5019781;27;97796;-72
2021/10/06 02:53:37;;;;;;;1999.90;999.90;;;;;;;10.23;52.74;100641.69;5016583;27;99399;-72
2021/10/06 02:56:05;;;;;;;1999.90;999.90;;;;;;;10.18;52.68;100639.81;5021566;27;97056;-72
2021/10/06 02:58:33;;;;;;;1999.90;999.90;;;;;;;10.13;52.92;100648.56;5021353;27;97008;-71
2021/10/06 03:01:01;;;;;;;1999.90;999.90;;;;;;;10.12;52.86;100650.31;5002542;28;100144;-72
2021/10/06 03:03:30;;;;;;;1999.90;999.90;;;;;;;10.11;52.93;100651.19;5015468;28;97904;-72
2021/10/06 03:05:58;;;;;;;1999.90;999.90;;;;;;;10.13;52.75;100660.09;5020814;27;97094;-72
2021/10/06 03:08:26;;;;;;;1999.90;999.90;;;;;;;10.13;53.04;100665.44;5021294;27;97041;-72
2021/10/06 03:10:53;;;;;;;1999.90;999.90;;;;;;;10.11;52.80;100667.16;5016636;27;98516;-72
2021/10/06 03:13:21;;;;;;;1999.90;999.90;;;;;;;10.11;53.17;100672.47;5023703;27;98874;-71
2021/10/06 03:15:49;;;;;;;1999.90;999.90;;;;;;;10.11;53.20;100676.88;5014866;28;97223;-72
2021/10/06 03:18:17;;;;;;;1999.90;999.90;;;;;;;10.11;53.30;100679.53;5018909;27;97341;-72
2021/10/06 03:20:46;;;;;;;1999.90;999.90;;;;;;;10.08;53.07;100680.34;5025357;27;99521;-72
2021/10/06 03:23:14;;;;;;;1999.90;999.90;;;;;;;10.06;53.15;100683.88;5018409;27;98135;-71
2021/10/06 03:25:42;;;;;;;1999.90;999.90;;;;;;;10.03;53.30;100678.47;5017224;28;98085;-72
2021/10/06 03:28:10;;;;;;;1999.90;999.90;;;;;;;10.02;53.06;100682.00;5019878;27;96969;-71
2021/10/06 03:30:37;;;;;;;1999.90;999.90;;;;;;;9.98;53.25;100681.03;5001591;27;100559;-73
2021/10/06 03:33:05;;;;;;;1999.90;999.90;;;;;;;10.00;53.29;100689.94;5004849;28;97161;-70
2021/10/06 03:35:33;;;;;;;1999.90;999.90;;;;;;;9.98;53.30;100693.44;5002205;27;96860;-71
2021/10/06 03:38:03;;;;;;;1999.90;999.90;;;;;;;9.92;52.89;100704.81;5023317;27;96938;-72
2021/10/06 03:40:31;;;;;;;1999.90;999.90;;;;;;;9.90;52.90;100708.31;5022349;27;97844;-72
2021/10/06 03:42:58;;;;;;;1999.90;999.90;;;;;;;9.88;52.59;100705.59;5022129;27;97733;-71
2021/10/06 03:45:27;;;;;;;1999.90;999.90;;;;;;;9.86;52.55;100710.00;5021016;27;97010;-72
2021/10/06 03:47:54;;;;;;;1999.90;999.90;;;;;;;9.85;52.63;100715.28;5024697;27;96986;-71
2021/10/06 03:50:22;;;;;;;1999.90;999.90;;;;;;;9.84;52.68;100717.06;5021671;27;100573;-71
2021/10/06 03:52:50;;;;;;;1999.90;999.90;;;;;;;9.81;52.54;100719.63;5020753;27;99001;-72
2021/10/06 03:55:19;;;;;;;1999.90;999.90;;;;;;;9.80;52.28;100722.25;5022293;27;97283;-71
2021/10/06 03:57:47;;;;;;;1999.90;999.90;;;;;;;9.79;52.40;100725.78;5021731;27;97313;-73
2021/10/06 04:00:15;;;;;;;1999.90;999.90;;;;;;;9.77;52.39;100733.69;5021492;27;97608;-71
2021/10/06 04:02:43;;;;;;;1999.90;999.90;;;;;;;9.76;52.34;100731.00;4992489;27;99792;-71
2021/10/06 04:05:11;;;;;;;1999.90;999.90;;;;;;;9.72;52.16;100735.34;5001512;27;96947;-71
2021/10/06 04:07:39;;;;;;;1999.90;999.90;;;;;;;9.71;52.11;100730.91;5020803;27;96924;-70
2021/10/06 04:10:08;;;;;;;1999.90;999.90;;;;;;;9.68;52.34;100741.44;5004392;27;99294;-71
2021/10/06 04:12:37;;;;;;;1999.90;999.90;;;;;;;9.69;52.38;100748.56;5019501;27;99450;-71
2021/10/06 04:15:06;;;;;;;1999.90;999.90;;;;;;;9.68;52.45;100748.53;5022949;27;97803;-69
2021/10/06 04:17:33;;;;;;;1999.90;999.90;;;;;;;9.66;52.32;100753.81;5002424;28;97908;-70
2021/10/06 04:20:01;;;;;;;1999.90;999.90;;;;;;;9.64;52.31;100750.22;5003345;27;99488;-72
2021/10/06 04:22:29;;;;;;;1999.90;999.90;;;;;;;9.62;52.29;100757.25;5016326;27;98879;-70
2021/10/06 04:24:57;;;;;;;1999.90;999.90;;;;;;;9.61;52.11;100763.41;5022628;27;97012;-72
2021/10/06 04:27:26;;;;;;;1999.90;999.90;;;;;;;9.58;52.27;100751.81;5020618;28;97781;-71
2021/10/06 04:29:56;;;;;;;1999.90;999.90;;;;;;;9.56;52.58;100762.41;5003801;27;100674;-73
2021/10/06 04:32:23;;;;;;;1999.90;999.90;;;;;;;9.55;52.60;100767.69;5019672;27;99334;-70
2021/10/06 04:34:51;;;;;;;1999.90;999.90;;;;;;;9.53;52.68;100767.66;5019397;27;97040;-74
2021/10/06 04:37:19;;;;;;;1999.90;999.90;;;;;;;9.52;52.83;100773.81;5017593;27;97775;-72
2021/10/06 04:39:47;;;;;;;1999.90;999.90;;;;;;;9.50;52.84;100780.84;5019531;27;97929;-73
2021/10/06 04:42:15;;;;;;;1999.90;999.90;;;;;;;9.49;52.84;100780.81;5018850;27;98976;-70
2021/10/06 04:44:43;;;;;;;1999.90;999.90;;;;;;;9.48;52.70;100787.88;5019183;27;97423;-70
2021/10/06 04:47:12;;;;;;;1999.90;999.90;;;;;;;9.44;52.85;100793.06;5019822;27;97403;-72
2021/10/06 04:49:39;;;;;;;1999.90;999.90;;;;;;;9.41;52.99;100796.50;5017690;27;98824;-71
2021/10/06 04:52:07;;;;;;;1999.90;999.90;;;;;;;9.00;54.09;100799.84;5019650;27;97530;-72
2021/10/06 04:54:35;;;;;;;1999.90;999.90;;;;;;;8.79;54.43;100796.56;5019032;27;97798;-71
2021/10/06 04:57:03;;;;;;;1999.90;999.90;;;;;;;8.64;54.73;100798.78;5021973;27;97574;-72
2021/10/06 04:59:31;;;;;;;1999.90;999.90;;;;;;;8.52;55.12;100804.63;5020900;28;99705;-73
2021/10/06 05:01:59;;;;;;;1999.90;999.90;;;;;;;8.86;54.13;100811.81;5021319;27;99251;-74
2021/10/06 05:04:29;;;;;;;1999.90;999.90;;;;;;;8.57;54.92;100818.03;4994817;28;97645;-72
2021/10/06 05:06:57;;;;;;;1999.90;999.90;;;;;;;8.44;55.42;100824.66;5002898;28;96954;-74
2021/10/06 05:09:25;;;;;;;1999.90;999.90;;;;;;;8.78;54.61;100821.31;5015317;27;98021;-74
2021/10/06 05:11:53;;;;;;;1999.90;999.90;;;;;;;8.89;54.44;100826.06;5019882;27;98969;-70
2021/10/06 05:14:21;;;;;;;1999.90;999.90;;;;;;;8.94;54.19;100826.19;5028568;27;97364;-73
2021/10/06 05:16:52;;;;;;;1999.90;999.90;;;;;;;8.97;53.88;100826.31;5019847;27;96877;-71
2021/10/06 05:19:20;;;;;;;1999.90;999.90;;;;;;;8.99;54.18;100833.44;5020280;27;98699;-71
2021/10/06 05:21:49;;;;;;;1999.90;999.90;;;;;;;9.02;53.90;100833.50;5020793;27;99398;-71
2021/10/06 05:24:17;;;;;;;1999.90;999.90;;;;;;;9.03;53.75;100837.06;5020351;27;98879;-73
2021/10/06 05:26:45;;;;;;;1999.90;999.90;;;;;;;9.04;53.90;100841.53;5020413;27;97593;-71
2021/10/06 05:29:13;;;;;;;1999.90;999.90;;;;;;;9.05;53.70;100838.00;5019145;27;98592;-71
2021/10/06 05:31:41;;;;;;;1999.90;999.90;;;;;;;9.08;53.39;100846.03;5021803;27;97931;-71
2021/10/06 05:34:09;;;;;;;1999.90;999.90;;;;;;;9.09;53.34;100855.81;5014032;28;97188;-71
2021/10/06 05:36:37;;;;;;;1999.90;999.90;;;;;;;9.10;53.00;100847.00;5018945;27;97058;-71
2021/10/06 05:39:06;;;;;;;1999.90;999.90;;;;;;;9.06;53.07;100842.47;5001897;28;99783;-73
2021/10/06 05:41:34;;;;;;;1999.90;999.90;;;;;;;9.08;52.79;100846.94;5017655;27;99657;-72
2021/10/06 05:44:02;;;;;;;1999.90;999.90;;;;;;;9.07;52.75;100849.56;5011038;27;98858;-71
2021/10/06 05:46:29;;;;;;;1999.90;999.90;;;;;;;8.68;53.91;100848.41;5019369;27;97907;-72
2021/10/06 05:48:57;;;;;;;1999.90;999.90;;;;;;;8.49;54.60;100864.63;5018038;28;99468;-74
2021/10/06 05:51:25;;;;;;;1999.90;999.90;;;;;;;8.37;54.74;100862.47;5018680;27;99128;-73
2021/10/06 05:53:53;;;;;;;1999.90;999.90;;;;;;;8.31;54.85;100871.97;4993562;27;96983;-72
2021/10/06 05:56:22;;;;;;;1999.90;999.90;;;;;;;8.23;55.07;100872.66;5016984;28;97847;-74
2021/10/06 05:58:50;;;;;;;1999.90;999.90;;;;;;;8.19;55.35;100876.03;5019529;27;97691;-72
2021/10/06 06:01:17;;;;;;;1999.90;999.90;;;;;;;8.13;55.62;100882.88;5010429;27;97970;-73
2021/10/06 06:03:45;;;;;;;1999.90;999.90;;;;;;;8.08;55.50;100880.09;5020666;27;97218;-71
2021/10/06 06:06:13;;;;;;;1999.90;999.90;;;;;;;8.06;55.41;100872.94;5019085;27;97118;-72
2021/10/06 06:08:41;;;;;;;1999.90;999.90;;;;;;;8.02;55.65;100877.22;5017082;27;98199;-72
2021/10/06 06:11:09;;;;;;;1999.90;999.90;;;;;;;8.02;55.53;100874.59;5019708;28;97839;-73
2021/10/06 06:13:38;;;;;;;1999.90;999.90;;;;;;;8.01;55.69;100875.44;5018092;28;97952;-71
2021/10/06 06:16:06;;;;;;;1999.90;999.90;;;;;;;8.41;54.86;100885.56;5020400;27;97238;-73
2021/10/06 06:18:34;;;;;;;1999.90;999.90;;;;;;;8.20;55.48;100887.56;5020079;27;98206;-72
2021/10/06 06:21:02;;;;;;;1999.90;999.90;;;;;;;8.11;55.36;100885.47;5021463;27;98185;-73
2021/10/06 06:23:31;;;;;;;1999.90;999.90;;;;;;;8.09;55.69;100894.25;5022279;27;96998;-72
2021/10/06 06:26:00;;;;;;;1999.90;999.90;;;;;;;8.06;55.64;100899.44;5003509;28;96994;-72
2021/10/06 06:28:28;;;;;;;1999.90;999.90;;;;;;;8.07;55.66;100903.91;5021092;28;100433;-72
2021/10/06 06:30:57;;;;;;;1999.90;999.90;;;;;;;8.06;55.73;100908.28;5022054;27;99549;-74
2021/10/06 06:33:25;;;;;;;1999.90;999.90;;;;;;;8.05;55.60;100903.84;5019898;28;97860;-73
2021/10/06 06:35:53;;;;;;;1999.90;999.90;;;;;;;8.07;55.76;100914.50;5021116;27;97273;-71
2021/10/06 06:38:20;;;;;;;1999.90;999.90;;;;;;;8.09;55.57;100920.75;5022891;27;97661;-75
2021/10/06 06:40:48;;;;;;;1999.90;999.90;;;;;;;8.04;55.76;100927.63;5020502;27;100595;-73
2021/10/06 06:43:16;;;;;;;1999.90;999.90;;;;;;;8.05;55.87;100934.75;5020875;28;97700;-71
2021/10/06 06:45:44;;;;;;;1999.90;999.90;;;;;;;8.04;55.92;100932.94;5022814;27;97435;-72
2021/10/06 06:48:16;;;;;;;1999.90;999.90;;;;;;;8.05;56.00;100934.75;5020613;27;100969;-75
2021/10/06 06:50:50;;;;;;;1999.90;999.90;;;;;;;8.01;55.93;100939.03;5021607;27;97721;-73
2021/10/06 06:53:18;;;;;;;1999.90;999.90;;;;;;;8.04;55.91;100927.63;5003663;27;96829;-72
2021/10/06 06:55:46;;;;;;;1999.90;999.90;;;;;;;8.04;55.84;100923.25;5006079;28;97934;-72
2021/10/06 06:58:14;;;;;;;1999.90;999.90;;;;;;;8.06;55.73;100948.03;5020276;27;98999;-72
2021/10/06 07:00:42;;;;;;;1999.90;999.90;;;;;;;8.10;55.87;100959.66;5002919;28;102578;-72
2021/10/06 07:03:09;;;;;;;1999.90;999.90;;;;;;;8.11;55.96;100956.16;5022351;27;96948;-75
2021/10/06 07:05:39;;;;;;;1999.90;999.90;;;;;;;8.15;55.59;100966.00;5019138;27;96969;-74
2021/10/06 07:08:08;;;;;;;1999.90;999.90;;;;;;;8.49;55.21;100965.41;5017761;27;99088;-73
2021/10/06 07:10:36;;;;;;;1999.90;999.90;;;;;;;8.70;54.82;100964.34;5016657;27;98859;-75
2021/10/06 07:13:23;;;;;;;1999.90;999.90;;;;;;;8.44;55.64;100959.91;5022742;27;96956;-74
2021/10/06 07:15:51;;;;;;;1999.90;999.90;;;;;;;8.37;56.04;100965.88;5020456;27;97906;-73
2021/10/06 07:18:19;;;;;;;1999.90;999.90;;;;;;;8.36;55.89;100973.78;5020339;28;97622;-73
2021/10/06 07:20:50;;;;;;;1999.90;999.90;;;;;;;8.74;55.25;100984.81;5018723;28;100068;-73
2021/10/06 07:23:18;;;;;;;1999.90;999.90;;;;;;;8.96;54.80;100986.38;5021179;27;96988;-73
2021/10/06 07:25:46;;;;;;;1999.90;999.90;;;;;;;9.08;54.94;100987.66;5019989;27;96889;-72
2021/10/06 07:28:13;;;;;;;1999.90;999.90;;;;;;;9.21;54.79;100983.59;5019390;27;98053;-73
2021/10/06 07:30:41;;;;;;;1999.90;999.90;;;;;;;9.31;54.61;100990.09;5020501;27;97353;-74
2021/10/06 07:33:09;;;;;;;1999.90;999.90;;;;;;;9.45;54.51;100997.59;5021203;27;97640;-73
2021/10/06 07:35:37;;;;;;;1999.90;999.90;;;;;;;9.53;54.44;101004.09;5027712;27;97383;-75
2021/10/06 07:38:06;;;;;;;1999.90;999.90;;;;;;;9.58;54.59;100996.22;5020495;27;97654;-73
2021/10/06 07:40:34;;;;;;;1999.90;999.90;;;;;;;9.63;54.51;100999.91;5019480;28;100631;-74
2021/10/06 07:43:02;;;;;;;1999.90;999.90;;;;;;;9.68;54.35;100999.19;5019047;28;97790;-74
2021/10/06 07:45:30;;;;;;;1999.90;999.90;;;;;;;9.74;54.32;101002.03;5017267;28;97466;-73
2021/10/06 07:47:58;;;;;;;1999.90;999.90;;;;;;;9.79;54.03;101003.03;5018312;27;99829;-73
2021/10/06 07:50:26;;;;;;;1999.90;999.90;;;;;;;9.81;54.12;100998.69;5019921;27;99499;-72
2021/10/06 07:52:54;;;;;;;1999.90;999.90;;;;;;;9.87;53.80;101004.16;5018023;28;97844;-72
2021/10/06 07:55:24;;;;;;;1999.90;999.90;;;;;;;9.91;53.43;100998.09;5017738;28;97743;-71
2021/10/06 07:57:52;;;;;;;1999.90;999.90;;;;;;;9.96;53.41;101001.75;5017990;27;98206;-72
2021/10/06 08:00:20;;;;;;;1999.90;999.90;;;;;;;10.01;53.51;101010.75;5017591;28;100465;-71
2021/10/06 08:02:48;;;;;;;1999.90;999.90;;;;;;;10.05;53.55;101006.41;5001847;28;97470;-72
2021/10/06 08:05:16;;;;;;;1999.90;999.90;;;;;;;10.10;53.18;101011.00;5000857;27;97162;-72
2021/10/06 08:07:44;;;;;;;1999.90;999.90;;;;;;;10.14;52.79;101019.94;5018381;28;97724;-73
2021/10/06 08:10:11;;;;;;;1999.90;999.90;;;;;;;10.15;52.51;101025.34;5020963;27;96730;-73
2021/10/06 08:12:41;;;;;;;1999.90;999.90;;;;;;;10.21;52.30;101024.56;5018039;27;97729;-71
2021/10/06 08:15:09;;;;;;;1999.90;999.90;;;;;;;10.23;52.09;101023.75;5019490;27;97251;-73
2021/10/06 08:17:37;;;;;;;1999.90;999.90;;;;;;;10.28;51.88;101029.22;5000076;28;99225;-72
2021/10/06 08:20:06;;;;;;;1999.90;999.90;;;;;;;10.30;51.49;101031.91;5021755;27;97654;-73
2021/10/06 08:22:34;;;;;;;1999.90;999.90;;;;;;;10.30;51.42;101022.19;5021401;27;97414;-73
2021/10/06 08:25:02;;;;;;;1999.90;999.90;;;;;;;10.31;51.18;101023.97;5005755;28;97015;-73
2021/10/06 08:27:30;;;;;;;1999.90;999.90;;;;;;;10.33;50.43;101029.31;5022429;27;98979;-74
2021/10/06 08:29:59;;;;;;;1999.90;999.90;;;;;;;10.32;50.42;101030.19;5022587;27;98657;-71
2021/10/06 08:32:26;;;;;;;1999.90;999.90;;;;;;;10.33;50.11;101032.88;5022897;27;97601;-71
2021/10/06 08:34:54;;;;;;;1999.90;999.90;;;;;;;10.32;49.92;101040.84;5021903;27;97818;-72
2021/10/06 08:37:22;;;;;;;1999.90;999.90;;;;;;;10.32;49.72;101033.72;5019518;27;98701;-73
2021/10/06 08:39:50;;;;;;;1999.90;999.90;;;;;;;10.29;49.82;101035.41;5021085;27;99621;-73
2021/10/06 08:42:20;;;;;;;1999.90;999.90;;;;;;;10.32;49.84;101032.84;5023049;27;97130;-72
2021/10/06 08:44:50;;;;;;;1999.90;999.90;;;;;;;10.28;49.89;101039.84;5024109;27;97253;-73
2021/10/06 08:47:21;;;;;;;1999.90;999.90;;;;;;;10.32;49.51;101047.03;5021988;27;99191;-73
2021/10/06 08:49:49;;;;;;;1999.90;999.90;;;;;;;10.02;50.57;101054.19;5022202;27;98635;-73
2021/10/06 08:52:17;;;;;;;1999.90;999.90;;;;;;;9.92;50.78;101058.34;5022279;27;97807;-72
2021/10/06 08:54:45;;;;;;;1999.90;999.90;;;;;;;9.84;51.16;101067.88;5026356;27;97288;-72
2021/10/06 08:57:16;;;;;;;1999.90;999.90;;;;;;;10.07;50.43;101065.84;5021376;27;96774;-73
2021/10/06 08:59:44;;;;;;;1999.90;999.90;;;;;;;9.89;51.10;101084.84;5022816;27;98652;-73
2021/10/06 09:02:12;;;;;;;1999.90;999.90;;;;;;;9.86;51.31;101074.13;5005126;28;97772;-72
2021/10/06 09:04:42;;;;;;;1999.90;999.90;;;;;;;9.82;51.46;101082.88;5022457;27;97007;-72
2021/10/06 09:07:11;;;;;;;1999.90;999.90;;;;;;;9.81;51.47;101086.38;5005732;28;98701;-74
2021/10/06 09:09:39;;;;;;;1999.90;999.90;;;;;;;9.81;51.57;101075.75;5024247;28;99474;-72
2021/10/06 09:12:12;;;;;;;1999.90;999.90;;;;;;;9.82;50.68;101084.63;4999785;28;97297;-73
2021/10/06 09:14:42;;;;;;;1999.90;999.90;;;;;;;9.82;51.37;101093.53;5023084;27;96772;-74
2021/10/06 09:17:11;;;;;;;1999.90;999.90;;;;;;;9.86;51.34;101091.84;5023187;27;96862;-73
2021/10/06 09:19:43;;;;;;;1999.90;999.90;;;;;;;9.89;51.28;101123.81;5023266;27;101006;-74
2021/10/06 09:22:16;;;;;;;1999.90;999.90;;;;;;;9.87;51.44;101106.94;5022579;27;96887;-73
2021/10/06 09:24:56;;;;;;;1999.90;999.90;;;;;;;10.12;50.41;101114.72;5032368;27;96834;-73
2021/10/06 09:27:26;;;;;;;1999.90;999.90;;;;;;;10.25;49.47;101110.69;5021662;27;97882;-74
2021/10/06 09:29:55;;;;;;;1999.90;999.90;;;;;;;10.14;50.02;101123.66;5020716;28;99100;-73
2021/10/06 09:32:25;;;;;;;1999.90;999.90;;;;;;;10.07;50.33;101111.97;5020636;28;96886;-74
2021/10/06 09:35:05;;;;;;;1999.90;999.90;;;;;;;10.03;50.15;101119.78;5007382;28;97110;-73
2021/10/06 09:37:34;;;;;;;1999.90;999.90;;;;;;;10.03;50.66;101126.03;5006824;28;99212;-73
2021/10/06 09:40:03;;;;;;;1999.90;999.90;;;;;;;10.25;49.10;101131.97;5023823;27;98834;-73
2021/10/06 09:42:40;;;;;;;1999.90;999.90;;;;;;;10.37;47.84;101124.31;5021751;27;98286;-74
2021/10/06 09:45:08;;;;;;;1999.90;999.90;;;;;;;10.47;47.00;101140.59;5023593;27;96906;-73
2021/10/06 09:47:37;;;;;;;1999.90;999.90;;;;;;;10.29;47.77;101129.41;5024593;27;97662;-73
2021/10/06 09:50:07;;;;;;;1999.90;999.90;;;;;;;10.23;48.23;101133.69;5023325;27;98880;-74
2021/10/06 09:52:35;;;;;;;1999.90;999.90;;;;;;;10.17;47.95;101140.59;5024379;27;97282;-73
2021/10/06 09:55:05;;;;;;;1999.90;999.90;;;;;;;10.14;48.25;101140.53;5023840;27;96888;-74
2021/10/06 09:57:34;;;;;;;1999.90;999.90;;;;;;;10.17;48.58;101147.69;5022679;27;99420;-73
2021/10/06 10:00:06;;;;;;;1999.90;999.90;;;;;;;10.43;47.35;101140.47;5022511;27;97853;-73
2021/10/06 10:02:40;;;;;;;1999.90;999.90;;;;;;;10.34;47.76;101140.19;5023224;27;97209;-73
2021/10/06 10:05:11;;;;;;;1999.90;999.90;;;;;;;10.36;47.89;101151.75;5022128;27;97249;-74
2021/10/06 10:07:39;;;;;;;1999.90;999.90;;;;;;;10.33;47.99;101144.59;5024368;28;99935;-74
2021/10/06 10:10:09;;;;;;;1999.90;999.90;;;;;;;10.33;48.07;101149.03;5023847;27;97621;-75
2021/10/06 10:12:41;;;;;;;1999.90;999.90;;;;;;;10.52;46.31;101154.91;5003654;28;97196;-73
2021/10/06 10:15:10;;;;;;;1999.90;999.90;;;;;;;10.41;46.90;101158.13;5022639;27;97248;-74
2021/10/06 10:17:37;;;;;;;1999.90;999.90;;;;;;;10.37;47.41;101157.16;5020138;27;99246;-73
2021/10/06 10:20:11;;;;;;;1999.90;999.90;;;;;;;10.37;47.36;101157.16;5021496;28;99114;-74
2021/10/06 10:22:41;;;;;;;1999.90;999.90;;;;;;;10.36;47.80;101157.97;5021377;27;99544;-74
2021/10/06 10:25:18;;;;;;;1999.90;999.90;;;;;;;10.38;47.51;101152.69;5006195;28;97224;-74
2021/10/06 10:27:59;;;;;;;1999.90;999.90;;;;;;;10.38;47.29;101161.59;5022551;27;98062;-73
2021/10/06 10:30:28;;;;;;;1999.90;999.90;;;;;;;10.40;48.00;101162.53;5005555;28;99449;-74
2021/10/06 10:32:56;;;;;;;1999.90;999.90;;;;;;;10.42;47.87;101162.59;5022599;27;96935;-73
2021/10/06 10:35:36;;;;;;;1999.90;999.90;;;;;;;10.32;45.16;101177.38;5022940;27;97540;-74
2021/10/06 10:38:13;;;;;;;1999.90;999.90;;;;;;;10.33;47.59;101167.63;5021474;27;99654;-74
2021/10/06 10:40:46;;;;;;;1999.90;999.90;;;;;;;10.30;47.74;101167.56;5002991;28;99311;-73
2021/10/06 10:43:16;;;;;;;1999.90;999.90;;;;;;;10.32;47.95;101174.72;5004010;27;97826;-74
2021/10/06 10:45:48;;;;;;;1999.90;999.90;;;;;;;10.34;47.93;101180.09;5024239;27;96911;-71
2021/10/06 10:48:19;;;;;;;1999.90;999.90;;;;;;;10.37;47.74;101166.88;5020654;27;99087;-74
2021/10/06 10:51:07;;;;;;;1999.90;999.90;;;;;;;10.40;45.82;101172.28;5021747;27;97691;-72
2021/10/06 10:54:00;;;;;;;1999.90;999.90;;;;;;;10.46;45.65;101170.72;5021987;28;96889;-73
2021/10/06 10:56:40;;;;;;;1999.90;999.90;;;;;;;10.53;46.65;101158.47;5006085;27;97398;-73